West Columbia, SC

4:01 PM EST on February 20, 2017 (GMT -0500)
Abberly Village | | Change Station

Elev 3 ft 34.01 °N, 81.11 °W | Updated 14 seconds ago

Partly Cloudy
Partly Cloudy
75.7 °F
Feels Like 77 °F
N
0.0
Wind Variable Wind from NE

Today
High -- | Low -- °F
--% Chance of Precip.
Yesterday
High -- | Low -- °F
Precip. -- in
Pressure 30.14 in
Visibility 10.0 miles
Clouds Mostly Cloudy 18000 ft
Mostly Cloudy 22000 ft
Heat Index 77 °F
Dew Point 44 °F
Humidity 32%
Rainfall 0.00 in
Snow Depth Not available.
7:03 AM 6:13 PM
Waning Crescent, 31% visible
METAR KCAE 202056Z 12005KT 10SM BKN180 BKN220 23/05 A3014 RMK AO2 SLP204 T02330050 56009
Pressure 30.14 in
Visibility 10.0 miles
Clouds Mostly Cloudy 18000 ft
Mostly Cloudy 22000 ft
Heat Index 77 °F
Dew Point 44 °F
Humidity 32%
Rainfall 0.00 in
Snow Depth Not available.
7:03 AM 6:13 PM
Waning Crescent, 31% visible
METAR KCAE 202056Z 12005KT 10SM BKN180 BKN220 23/05 A3014 RMK AO2 SLP204 T02330050 56009

Get Your Daily Forecast Email!

Thanks for signing up!

Be on the lookout for a verification email in your inbox.

You'll start receiving the daily forecast at 8 AM.

×

10-Day Weather Forecast

Almanac

Astronomy

Feb. 20, 2017 Rise Set
Actual Time
Civil Twilight
Nautical Twilight
Astronomical Twilight
Moon
Length of Visible Light
Length of Day
Tomorrow will be .
, % of the Moon is Illuminated

Today's Extremes

State Highs State Lows

Community

WunderPhotos

Upload Photos

1,962,540 photos uploaded!

WunderBlog® & News

Nearby

Air Quality

  Air Quality AQ Index Pollutant
Not available.

Snow Depth

Station Depth Elevation

Earthquake Activity

City Distance Mag. Time & Date
Minimum magnitude displayed is 2.5.

Coastal Water Temperatures

Place Temperature

Stations

Nearby Weather Stations

Station Location Temp. Windchill Dew Point Humidity Wind Precip. Elev Updated Type
                   

Watches & Warnings

There are currently no watches in effect.